Terminal Aerodrome Forecast
Issued by NWS

Home | Current Version | Previous Version | Text Only | Print | Product List | Glossary On
Versions: 1 2 3 4 5 6 7 8 9 10 11 12 13 14
000
FTUS46 KMTR 182300
TAFSJC
TAF
KSJC 182337Z 1900/1924 12007KT P6SM FEW020 SCT060 SCT150
     FM190700 14011KT P6SM SCT025 BKN040 OVC100
     FM191200 12012KT P6SM -RA OVC035
     FM192300 24006KT P6SM -SHRA SCT030 BKN050=

USA.gov is the U.S. government's official web portal to all federal, state and local government web resources and services.